createdAt,value
2023-01-08T00:01:30.125Z,1008.95
2023-01-08T00:06:30.417Z,1009.02
2023-01-08T00:11:30.678Z,1008.91
2023-01-08T00:16:28.021Z,1008.79
2023-01-08T00:21:27.153Z,1008.55
2023-01-08T00:26:26.470Z,1008.57
2023-01-08T00:31:26.766Z,1008.64
2023-01-08T00:36:25.008Z,1008.67
2023-01-08T00:41:25.211Z,1008.61
2023-01-08T00:46:23.475Z,1008.77
2023-01-08T00:51:22.711Z,1008.69
2023-01-08T00:56:22.906Z,1008.58
2023-01-08T01:01:21.158Z,1008.40
2023-01-08T01:06:21.392Z,1008.43
2023-01-08T01:11:21.560Z,1008.43
2023-01-08T01:16:18.825Z,1008.44
2023-01-08T01:21:18.006Z,1008.31
2023-01-08T01:26:17.169Z,1008.28
2023-01-08T01:31:17.432Z,1008.17
2023-01-08T01:36:15.492Z,1008.33
2023-01-08T01:41:14.690Z,1008.33
2023-01-08T01:46:14.917Z,1008.39
2023-01-08T01:51:13.103Z,1008.29
2023-01-08T01:56:12.281Z,1008.22
2023-01-08T02:01:11.565Z,1008.13
2023-01-08T02:06:11.817Z,1008.13
2023-01-08T02:11:08.985Z,1008.14
2023-01-08T02:16:09.180Z,1008.20
2023-01-08T02:21:08.382Z,1008.18
2023-01-08T02:26:07.577Z,1008.33
2023-01-08T02:31:07.853Z,1008.32
2023-01-08T02:36:05.448Z,1008.37
2023-01-08T02:41:06.340Z,1008.21
2023-01-08T02:46:04.737Z,1008.15
2023-01-08T02:51:03.717Z,1008.01
2023-01-08T02:56:02.891Z,1008.24
2023-01-08T03:01:02.128Z,1008.07
2023-01-08T03:06:02.399Z,1007.91
2023-01-08T03:11:02.589Z,1007.74
2023-01-08T03:16:00.749Z,1007.76
2023-01-08T03:21:02.897Z,1007.63
2023-01-08T03:25:59.240Z,1007.33
2023-01-08T03:30:57.482Z,1007.16
2023-01-08T03:35:57.642Z,1007.06
2023-01-08T03:40:57.857Z,1006.86
2023-01-08T03:45:56.057Z,1006.68
2023-01-08T03:50:54.252Z,1006.61
2023-01-08T03:55:53.438Z,1006.43
2023-01-08T04:00:53.595Z,1006.51
2023-01-08T04:05:51.754Z,1006.42
2023-01-08T04:10:51.946Z,1006.31
2023-01-08T04:15:51.163Z,1006.25
2023-01-08T04:20:49.360Z,1006.12
2023-01-08T04:25:49.545Z,1005.97
2023-01-08T04:30:48.786Z,1005.97
2023-01-08T04:35:48.022Z,1006.25
2023-01-08T04:40:47.209Z,1006.16
2023-01-08T04:45:45.355Z,1006.18
2023-01-08T04:50:46.537Z,1006.29
2023-01-08T04:55:45.699Z,1006.35
2023-01-08T05:00:42.874Z,1006.59
2023-01-08T05:05:42.053Z,1006.69
2023-01-08T05:10:41.250Z,1006.76
2023-01-08T05:15:41.554Z,1006.82
2023-01-08T05:20:39.745Z,1006.73
2023-01-08T05:25:39.958Z,1006.84
2023-01-08T05:30:38.137Z,1006.90
2023-01-08T05:35:37.315Z,1007.17
2023-01-08T05:40:36.496Z,1007.26
2023-01-08T05:45:36.687Z,1007.27
2023-01-08T05:50:34.867Z,1007.19
2023-01-08T05:55:35.028Z,1007.27
2023-01-08T06:00:33.195Z,1007.08
2023-01-08T06:05:32.354Z,1007.17
2023-01-08T06:10:31.514Z,1007.13
2023-01-08T06:15:30.772Z,1007.05
2023-01-08T06:20:29.960Z,1007.05
2023-01-08T06:25:30.143Z,1007.08
2023-01-08T06:30:30.336Z,1007.01
2023-01-08T06:35:27.476Z,1007.00
2023-01-08T06:40:27.646Z,1006.92
2023-01-08T06:45:25.800Z,1006.78
2023-01-08T06:50:25.963Z,1006.87
2023-01-08T06:55:25.139Z,1006.90
2023-01-08T07:00:23.355Z,1007.12
2023-01-08T07:05:22.587Z,1007.13
2023-01-08T07:10:23.834Z,1007.06
2023-01-08T07:15:21.001Z,1006.90
2023-01-08T07:20:21.179Z,1006.97
2023-01-08T07:25:20.379Z,1006.79
2023-01-08T07:30:29.344Z,1006.78
2023-01-08T07:35:17.819Z,1006.90
2023-01-08T07:40:17.003Z,1006.90
2023-01-08T07:45:20.327Z,1006.90
2023-01-08T07:50:15.482Z,1006.96
2023-01-08T07:55:14.685Z,1006.82
2023-01-08T08:00:14.896Z,1006.90
2023-01-08T08:05:14.078Z,1006.85
2023-01-08T08:10:12.223Z,1006.83
2023-01-08T08:15:11.402Z,1006.96
2023-01-08T08:20:10.564Z,1006.89
2023-01-08T08:25:10.751Z,1006.77
2023-01-08T08:30:09.931Z,1006.76
2023-01-08T08:35:08.097Z,1006.60
2023-01-08T08:40:07.294Z,1006.68
2023-01-08T08:45:07.537Z,1006.72
2023-01-08T08:50:05.694Z,1006.80
2023-01-08T08:55:04.891Z,1006.80
2023-01-08T09:00:04.100Z,1006.80
2023-01-08T09:05:04.392Z,1006.93
2023-01-08T09:10:03.654Z,1007.13
2023-01-08T09:15:01.835Z,1007.28
2023-01-08T09:20:01.048Z,1007.29
2023-01-08T09:25:00.230Z,1007.32
2023-01-08T09:30:00.439Z,1007.31
2023-01-08T09:34:59.593Z,1007.25
2023-01-08T09:40:02.475Z,1007.39
2023-01-08T09:44:58.044Z,1007.38
2023-01-08T09:49:57.270Z,1007.39
2023-01-08T09:54:54.432Z,1007.31
2023-01-08T09:59:54.624Z,1007.25
2023-01-08T10:04:54.807Z,1007.10
2023-01-08T10:09:52.977Z,1007.12
2023-01-08T10:14:54.351Z,1007.09
2023-01-08T10:19:53.460Z,1006.86
2023-01-08T10:24:50.601Z,1006.76
2023-01-08T10:29:50.780Z,1006.75
2023-01-08T10:34:48.944Z,1006.77
2023-01-08T10:39:49.124Z,1006.73
2023-01-08T10:44:48.296Z,1006.70
2023-01-08T10:49:46.459Z,1006.59
2023-01-08T10:54:47.650Z,1006.66
2023-01-08T10:59:44.767Z,1006.69
2023-01-08T11:04:44.944Z,1006.64
2023-01-08T11:09:45.113Z,1006.55
2023-01-08T11:14:44.268Z,1006.40
2023-01-08T11:19:44.440Z,1006.23
2023-01-08T11:24:40.625Z,1006.31
2023-01-08T11:29:38.853Z,1006.27
2023-01-08T11:34:38.090Z,1006.24
2023-01-08T11:39:38.217Z,1006.11
2023-01-08T11:44:37.564Z,1005.99
2023-01-08T11:49:36.731Z,1005.90
2023-01-08T11:54:36.870Z,1005.68
2023-01-08T11:59:36.190Z,1005.57
2023-01-08T12:04:36.360Z,1005.37
2023-01-08T12:09:33.816Z,1005.25
2023-01-08T12:14:32.769Z,1005.19
2023-01-08T12:19:31.923Z,1005.05
2023-01-08T12:24:33.063Z,1004.93
2023-01-08T12:29:30.209Z,1004.75
2023-01-08T12:34:29.366Z,1004.73
2023-01-08T12:39:29.535Z,1004.61
2023-01-08T12:44:27.686Z,1004.39
2023-01-08T12:49:26.820Z,1004.32
2023-01-08T12:54:27.119Z,1004.35
2023-01-08T12:59:25.437Z,1004.31
2023-01-08T13:04:25.728Z,1004.17
2023-01-08T13:09:24.999Z,1004.08
2023-01-08T13:14:26.777Z,1004.02
2023-01-08T13:19:22.495Z,1003.96
2023-01-08T13:24:20.639Z,1003.86
2023-01-08T13:29:21.911Z,1003.83
2023-01-08T13:34:22.174Z,1003.74
2023-01-08T13:39:20.487Z,1003.54
2023-01-08T13:44:19.640Z,1003.61
2023-01-08T13:49:17.980Z,1003.59
2023-01-08T13:54:17.125Z,1003.52
2023-01-08T13:59:17.358Z,1003.42
2023-01-08T14:04:15.531Z,1003.40
2023-01-08T14:09:15.709Z,1003.48
2023-01-08T14:14:14.883Z,1003.34
2023-01-08T14:19:13.089Z,1003.41
2023-01-08T14:24:13.271Z,1003.36
2023-01-08T14:29:11.435Z,1003.34
2023-01-08T14:34:10.659Z,1003.19
2023-01-08T14:39:10.864Z,1003.18
2023-01-08T14:44:09.020Z,1003.22
2023-01-08T14:49:08.218Z,1003.06
2023-01-08T14:54:08.436Z,1003.06
2023-01-08T14:59:06.626Z,1002.89
2023-01-08T15:04:06.859Z,1002.72
2023-01-08T15:09:06.049Z,1002.74
2023-01-08T15:14:04.229Z,1002.73
2023-01-08T15:19:03.435Z,1002.79
2023-01-08T15:24:03.601Z,1002.70
2023-01-08T15:29:01.788Z,1002.48
2023-01-08T15:34:01.961Z,1002.39
2023-01-08T15:39:00.147Z,1002.14
2023-01-08T15:43:59.337Z,1001.98
2023-01-08T15:48:58.624Z,1001.98
2023-01-08T15:53:56.830Z,1001.89
2023-01-08T15:58:57.067Z,1001.85
2023-01-08T16:03:57.354Z,1001.74
2023-01-08T16:08:55.590Z,1001.61
2023-01-08T16:13:54.913Z,1001.53
2023-01-08T16:18:52.997Z,1001.47
2023-01-08T16:23:53.392Z,1001.49
2023-01-08T16:28:53.440Z,1001.41
2023-01-08T16:33:52.394Z,1001.40
2023-01-08T16:38:50.849Z,1001.21
2023-01-08T16:43:51.071Z,1001.16
2023-01-08T16:48:49.292Z,1001.15
2023-01-08T16:53:49.514Z,1001.17
2023-01-08T16:58:48.914Z,1001.04
2023-01-08T17:03:47.285Z,1001.14
2023-01-08T17:08:46.428Z,1001.06
2023-01-08T17:13:45.726Z,1001.10
2023-01-08T17:18:44.793Z,1001.10
2023-01-08T17:23:45.326Z,1001.08
2023-01-08T17:28:43.250Z,1000.90
2023-01-08T17:33:42.445Z,1000.93
2023-01-08T17:38:41.671Z,1000.73
2023-01-08T17:43:45.624Z,1000.69
2023-01-08T17:48:41.112Z,1000.55
2023-01-08T17:53:40.422Z,1000.44
2023-01-08T17:58:39.844Z,1000.46
2023-01-08T18:03:37.030Z,1000.39
2023-01-08T18:08:37.226Z,1000.25
2023-01-08T18:13:36.255Z,1000.23
2023-01-08T18:18:37.752Z,1000.29
2023-01-08T18:23:34.628Z,1000.14
2023-01-08T18:28:33.813Z,1000.01
2023-01-08T18:33:33.200Z,1000.10
2023-01-08T18:38:35.813Z,999.97
2023-01-08T18:43:30.408Z,999.91
2023-01-08T18:48:30.719Z,999.96
2023-01-08T18:53:31.443Z,999.96
2023-01-08T18:58:31.570Z,999.88
2023-01-08T19:03:28.615Z,999.90
2023-01-08T19:08:27.666Z,999.90
2023-01-08T19:13:26.921Z,999.86
2023-01-08T19:18:27.250Z,999.77
2023-01-08T19:23:26.302Z,999.64
2023-01-08T19:28:25.619Z,999.60
2023-01-08T19:33:23.857Z,999.56
2023-01-08T19:38:24.324Z,999.45
2023-01-08T19:43:24.675Z,999.51
2023-01-08T19:48:23.773Z,999.49
2023-01-08T19:53:22.089Z,999.41
2023-01-08T19:58:21.146Z,999.41
2023-01-08T20:03:19.458Z,999.48
2023-01-08T20:08:18.852Z,999.40
2023-01-08T20:13:18.822Z,999.42
2023-01-08T20:18:18.175Z,999.41
2023-01-08T20:23:15.272Z,999.43
2023-01-08T20:28:17.842Z,999.34
2023-01-08T20:33:17.746Z,999.19
2023-01-08T20:38:15.136Z,999.06
2023-01-08T20:43:13.235Z,999.12
2023-01-08T20:48:12.728Z,999.19
2023-01-08T20:53:11.646Z,999.14
2023-01-08T20:58:10.869Z,999.07
2023-01-08T21:03:10.039Z,998.87
2023-01-08T21:08:10.223Z,998.71
2023-01-08T21:13:08.603Z,998.50
2023-01-08T21:18:08.825Z,998.46
2023-01-08T21:23:08.840Z,998.51
2023-01-08T21:28:06.037Z,998.50
2023-01-08T21:33:05.303Z,998.68
2023-01-08T21:38:04.532Z,998.60
2023-01-08T21:43:03.679Z,998.33
2023-01-08T21:48:02.894Z,998.25
2023-01-08T21:53:02.088Z,998.34
2023-01-08T21:58:01.311Z,998.65
2023-01-08T22:03:00.516Z,998.70
2023-01-08T22:07:59.727Z,998.86
2023-01-08T22:12:58.969Z,998.87
2023-01-08T22:17:58.146Z,998.80
2023-01-08T22:22:58.305Z,998.56
2023-01-08T22:27:58.519Z,998.48
2023-01-08T22:32:55.675Z,998.49
2023-01-08T22:37:55.845Z,998.53
2023-01-08T22:42:55.031Z,998.42
2023-01-08T22:47:54.193Z,998.48
2023-01-08T22:52:52.369Z,998.76
2023-01-08T22:57:51.532Z,998.93
2023-01-08T23:02:50.770Z,998.89
2023-01-08T23:07:49.957Z,998.94
2023-01-08T23:12:49.137Z,998.91
2023-01-08T23:17:52.467Z,999.05
2023-01-08T23:22:49.617Z,998.84
2023-01-08T23:27:49.889Z,998.97
2023-01-08T23:32:47.159Z,998.68
2023-01-08T23:37:45.439Z,998.63
2023-01-08T23:42:47.759Z,998.99
2023-01-08T23:47:43.034Z,999.18
2023-01-08T23:52:43.323Z,999.11
2023-01-08T23:57:42.621Z,998.94
